Haywood, West Virginia
Current Conditions -  °F | °C
As of 9:53 PM on Friday 21 Nov 2014 (Local Time) from KCKB Reporting Station
Clear Clear  
Wind Chill: 22°   Ceiling: Unl
Heat Index: 22°   Visibility: 10mi
Dew Point: 11°   Wind: 0mph
Humidity: 63%   Direction: NA
Pressure: 30.46"   Gusts: NA
Location:  39.38°N, 80.34°W
Report Text: KCKB 220253Z 00000KT 10SM CLR M06/M12 A3046 RMK AO2 SLP326 T10561117 58006
Loading
Personal Weather Stations






























Interactive Weather Map New forecast layout! Learn more

10-Day Weather Forecast

Advertisements
Track Severe Weather on mobile